Skip Navigation Links Skip Navigation Links

Current Weather

Whiteside Co Arpt-Jos H Bittorf Fld, Sterling/Rockfalls, Ill.

For information only: do not use for flight planning or navigation.
Latest weather
Observation time Sunday, October 13, 2019 5:56 PM CDT
Local time Sunday, October 13, 2019 6:06 PM CDT
Flight conditions Visual Meteorological Conditions
Winds
Wind direction West (280°)
Wind speed 15 mph
Visibility 10 mi.
Sky condition
Ceiling 5,000 ft. broken clouds
Cloud layer broken clouds 5,000 ft.
Temperature 47°F
Dewpoint 33°F
Altimeter 29.91 in.Hg
Derived measurements
Relative humidity 58%
Wind chill 41°F
Density altitude -47 ft.
Sea-level pressure 29.51 in.Hg
Remarks
Fully automated report.
System requires maintenance.
Automated weather observing station with precipitation discriminator.
Precipitation sensor not operating.
METAR KSQI 132256Z AUTO 28013KT 10SM BKN050 08/01 A2991 RMK AO2 SLP994 T00830006 PNO $

Settings

Location code

InnerDrive.Weather 4.0.6770.0 Release CLR 4.0.30319.42000
Copyright ©2018 Inner Drive Technology. All rights reserved. Portions Copyright ©1986-2018 David Braverman.

Find weather

Site navigation


Skip Navigation Links

Place info

Page info

PayPal - The safer, easier way to pay online!

Return home.

Copyright ©2019 Inner Drive Technology. Purveyors of fine, hand-crafted computer software. Page printed 2019-10-13T23:06:53 UTC.